Time;durP1;ratioP1;P1;durP2;ratioP2;P2;SDS_P1;SDS_P2;PMS_P1;PMS_P2;Temp;Humidity;BMP_temperature;BMP_pressure;BME280_temperature;BME280_humidity;BME280_pressure;Samples;Min_cycle;Max_cycle;Signal;HPM_P1;HPM_P2
2022/03/28 00:01:32;;;;;;;14.60;12.15;;;7.50;99.90;;;;;;5029251;28;20100;-76
2022/03/28 00:03:57;;;;;;;15.27;12.63;;;7.50;99.90;;;;;;5025489;28;20018;-76
2022/03/28 00:06:23;;;;;;;12.43;11.05;;;7.50;99.90;;;;;;5028241;28;20021;-76
2022/03/28 00:08:49;;;;;;;13.80;11.35;;;7.40;99.90;;;;;;5023155;28;20052;-75
2022/03/28 00:11:16;;;;;;;13.70;11.80;;;7.30;99.90;;;;;;5017139;28;20048;-77
2022/03/28 00:13:42;;;;;;;14.52;12.55;;;7.30;99.90;;;;;;5014770;28;20028;-76
2022/03/28 00:16:08;;;;;;;14.50;12.98;;;7.30;99.90;;;;;;5030802;28;20074;-76
2022/03/28 00:18:33;;;;;;;13.25;11.85;;;7.20;99.90;;;;;;5024937;28;20057;-75
2022/03/28 00:20:59;;;;;;;14.82;12.00;;;7.30;99.90;;;;;;5030349;28;20030;-75
2022/03/28 00:23:24;;;;;;;13.75;12.23;;;7.10;99.90;;;;;;5024737;28;20026;-75
2022/03/28 00:25:50;;;;;;;14.32;12.52;;;7.20;99.90;;;;;;5030656;28;20017;-74
2022/03/28 00:28:16;;;;;;;17.27;13.27;;;7.20;99.90;;;;;;5024523;28;20033;-75
2022/03/28 00:30:42;;;;;;;15.77;13.00;;;7.30;99.90;;;;;;5027360;28;20080;-74
2022/03/28 00:33:08;;;;;;;14.38;12.35;;;7.20;99.90;;;;;;5014392;28;20609;-75
2022/03/28 00:35:35;;;;;;;12.95;11.52;;;7.20;99.90;;;;;;5017264;28;20021;-76
2022/03/28 00:38:05;;;;;;;16.52;13.52;;;7.10;99.90;;;;;;5022417;28;20041;-75
2022/03/28 00:40:32;;;;;;;14.07;12.60;;;7.20;99.90;;;;;;5027128;28;20053;-74
2022/03/28 00:42:58;;;;;;;15.88;12.88;;;7.20;99.90;;;;;;5023497;28;20116;-75
2022/03/28 00:45:25;;;;;;;19.50;13.45;;;7.20;99.90;;;;;;5020771;28;20035;-75
2022/03/28 00:47:51;;;;;;;14.85;12.80;;;7.10;99.90;;;;;;5033887;28;20486;-74
2022/03/28 00:50:16;;;;;;;15.35;13.30;;;7.10;99.90;;;;;;5020280;28;20503;-75
2022/03/28 00:52:42;;;;;;;13.27;11.88;;;7.00;99.90;;;;;;5023219;28;20057;-75
2022/03/28 00:55:09;;;;;;;13.82;12.07;;;6.90;99.90;;;;;;5027400;28;20022;-76
2022/03/28 00:57:35;;;;;;;14.90;12.02;;;6.90;99.90;;;;;;5024380;28;20037;-76
2022/03/28 01:00:04;;;;;;;17.45;13.05;;;6.80;99.90;;;;;;5038476;28;20021;-76
2022/03/28 01:02:30;;;;;;;13.45;11.55;;;6.70;99.90;;;;;;5048117;28;20477;-76
2022/03/28 01:04:57;;;;;;;14.40;12.05;;;6.70;99.90;;;;;;5044910;28;20056;-76
2022/03/28 01:07:23;;;;;;;13.50;12.10;;;6.60;99.90;;;;;;5045293;28;20021;-76
2022/03/28 01:09:48;;;;;;;16.10;12.63;;;6.70;99.90;;;;;;5039064;28;20033;-76
2022/03/28 01:12:14;;;;;;;16.00;12.52;;;6.70;99.90;;;;;;5043937;28;20029;-75
2022/03/28 01:14:41;;;;;;;15.85;12.90;;;6.60;99.90;;;;;;5040521;28;20491;-75
2022/03/28 01:19:54;;;;;;;14.18;12.13;;;6.70;99.90;;;;;;5034821;28;20514;-76
2022/03/28 01:22:20;;;;;;;16.38;13.18;;;6.60;99.90;;;;;;5047707;28;20026;-75
2022/03/28 01:24:46;;;;;;;13.55;11.82;;;6.60;99.90;;;;;;5034610;28;20037;-75
2022/03/28 01:27:13;;;;;;;15.18;12.25;;;6.60;99.90;;;;;;5040926;28;20061;-75
2022/03/28 01:29:39;;;;;;;14.07;12.45;;;6.70;99.90;;;;;;5034623;28;20116;-75
2022/03/28 01:32:05;;;;;;;15.52;12.55;;;6.70;99.90;;;;;;5032512;28;20033;-75
2022/03/28 01:34:31;;;;;;;15.70;13.80;;;6.60;99.90;;;;;;5045330;28;20024;-75
2022/03/28 01:36:56;;;;;;;15.60;13.43;;;6.50;99.90;;;;;;5043901;28;20059;-76
2022/03/28 01:39:22;;;;;;;15.85;13.60;;;6.60;99.90;;;;;;5035845;28;20021;-76
2022/03/28 01:41:47;;;;;;;15.70;13.80;;;6.60;99.90;;;;;;5030374;28;20025;-77
2022/03/28 01:44:13;;;;;;;16.63;13.80;;;6.60;99.90;;;;;;5031543;28;20018;-77
2022/03/28 01:46:46;;;;;;;14.88;13.13;;;6.60;99.90;;;;;;5031509;28;20029;-77
2022/03/28 01:49:17;;;;;;;15.95;14.23;;;6.60;99.90;;;;;;5034381;28;20670;-77
2022/03/28 01:51:43;;;;;;;15.50;13.52;;;6.50;99.90;;;;;;5037947;28;20021;-76
2022/03/28 01:54:09;;;;;;;15.90;13.88;;;6.40;99.90;;;;;;5040742;28;20025;-76
2022/03/28 01:56:35;;;;;;;17.05;13.43;;;6.50;99.90;;;;;;5032401;28;20463;-76
2022/03/28 01:59:02;;;;;;;16.02;13.60;;;6.50;99.90;;;;;;5034160;28;20040;-76
2022/03/28 02:01:28;;;;;;;16.77;14.07;;;6.40;99.90;;;;;;5043293;28;20494;-76
2022/03/28 02:03:53;;;;;;;16.25;14.45;;;6.40;99.90;;;;;;5049099;28;20029;-77
2022/03/28 02:06:19;;;;;;;17.45;14.32;;;6.40;99.90;;;;;;5029706;28;20017;-76
2022/03/28 02:08:44;;;;;;;18.40;14.05;;;6.40;99.90;;;;;;5045247;28;20478;-76
2022/03/28 02:11:10;;;;;;;17.08;15.00;;;6.20;99.90;;;;;;5025008;28;20507;-77
2022/03/28 02:13:36;;;;;;;16.40;13.82;;;6.30;99.90;;;;;;5023782;28;20051;-76
2022/03/28 02:16:02;;;;;;;15.52;13.48;;;6.30;99.90;;;;;;5042433;28;20457;-76
2022/03/28 02:18:28;;;;;;;18.30;15.45;;;6.30;99.90;;;;;;5034220;28;20025;-76
2022/03/28 02:20:53;;;;;;;15.90;13.70;;;6.30;99.90;;;;;;5034487;28;20035;-76
2022/03/28 02:23:20;;;;;;;16.20;13.45;;;6.20;99.90;;;;;;5035358;28;20108;-76
2022/03/28 02:25:45;;;;;;;17.95;14.43;;;6.20;99.90;;;;;;5028811;28;20080;-76
2022/03/28 02:28:11;;;;;;;19.00;14.85;;;6.20;99.90;;;;;;5033618;28;20499;-76
2022/03/28 02:30:37;;;;;;;17.50;15.60;;;6.20;99.90;;;;;;5035533;28;20100;-76
2022/03/28 02:33:03;;;;;;;16.35;14.32;;;6.30;99.90;;;;;;5032011;28;20121;-76
2022/03/28 02:35:29;;;;;;;17.45;14.52;;;6.30;99.90;;;;;;5018834;28;20022;-76
2022/03/28 02:37:54;;;;;;;17.70;14.95;;;6.20;99.90;;;;;;5029257;28;20041;-76
2022/03/28 02:40:20;;;;;;;17.00;15.13;;;6.40;99.90;;;;;;5042985;28;20452;-76
2022/03/28 02:42:45;;;;;;;17.98;15.02;;;6.50;99.90;;;;;;5045150;28;20025;-76
2022/03/28 02:45:11;;;;;;;17.27;15.50;;;6.60;99.90;;;;;;5028692;28;20047;-76
2022/03/28 02:47:37;;;;;;;18.40;15.57;;;6.50;99.90;;;;;;5042415;28;20025;-77
2022/03/28 02:50:03;;;;;;;40.00;35.63;;;6.50;99.90;;;;;;5027834;28;20036;-77
2022/03/28 02:52:28;;;;;;;24.85;22.20;;;6.50;99.90;;;;;;5033429;28;20025;-76
2022/03/28 02:54:54;;;;;;;20.90;17.35;;;6.40;99.90;;;;;;5038372;28;20394;-77
2022/03/28 02:57:20;;;;;;;22.25;16.70;;;6.40;99.90;;;;;;5034510;28;20071;-76
2022/03/28 02:59:46;;;;;;;17.70;15.90;;;6.30;99.90;;;;;;5035471;28;20028;-76
2022/03/28 03:02:12;;;;;;;18.70;15.77;;;6.20;99.90;;;;;;5039138;28;20037;-76
2022/03/28 03:04:38;;;;;;;17.58;15.60;;;6.10;99.90;;;;;;5037037;28;20459;-77
2022/03/28 03:07:04;;;;;;;18.73;15.80;;;6.10;99.90;;;;;;5031776;28;20053;-76
2022/03/28 03:09:29;;;;;;;17.05;14.25;;;6.30;99.90;;;;;;5036569;28;20107;-76
2022/03/28 03:11:55;;;;;;;18.50;15.48;;;6.30;99.90;;;;;;5031815;28;20061;-76
2022/03/28 03:14:21;;;;;;;18.50;15.32;;;6.30;99.90;;;;;;5031380;28;20443;-76
2022/03/28 03:16:47;;;;;;;20.58;16.48;;;6.30;99.90;;;;;;5046788;28;20091;-76
2022/03/28 03:19:12;;;;;;;18.20;15.50;;;6.20;99.90;;;;;;5033694;28;20024;-75
2022/03/28 03:21:38;;;;;;;17.20;15.40;;;6.20;99.90;;;;;;5042935;28;20021;-76
2022/03/28 03:24:05;;;;;;;19.40;16.48;;;6.30;99.90;;;;;;5036673;28;20025;-76
2022/03/28 03:26:31;;;;;;;18.98;14.82;;;6.00;99.90;;;;;;5039329;28;20044;-75
2022/03/28 03:28:58;;;;;;;19.90;16.92;;;5.90;99.90;;;;;;5025760;28;20537;-77
2022/03/28 03:31:27;;;;;;;18.25;15.65;;;5.90;99.90;;;;;;5038814;28;20025;-77
2022/03/28 03:33:52;;;;;;;18.58;15.57;;;5.80;99.90;;;;;;5027508;28;20430;-77
2022/03/28 03:36:18;;;;;;;18.83;15.38;;;5.80;99.90;;;;;;5038081;28;20025;-76
2022/03/28 03:38:44;;;;;;;18.85;16.67;;;5.80;99.90;;;;;;5039343;28;20021;-76
2022/03/28 03:41:10;;;;;;;18.27;16.17;;;5.70;99.90;;;;;;5031097;28;20419;-75
2022/03/28 03:43:36;;;;;;;21.75;17.08;;;5.70;99.90;;;;;;5032595;28;20462;-77
2022/03/28 03:46:01;;;;;;;17.52;15.68;;;5.70;99.90;;;;;;5030692;28;20014;-76
2022/03/28 03:48:27;;;;;;;18.50;15.82;;;5.60;99.90;;;;;;5030835;28;20032;-76
2022/03/28 03:50:53;;;;;;;20.52;16.27;;;5.50;99.90;;;;;;5041863;28;20040;-76
2022/03/28 03:53:19;;;;;;;18.63;16.63;;;5.30;99.90;;;;;;5028499;28;20644;-76
2022/03/28 03:55:46;;;;;;;21.30;17.52;;;5.30;99.90;;;;;;5044110;28;20029;-76
2022/03/28 03:58:12;;;;;;;17.33;15.32;;;5.30;99.90;;;;;;5025740;28;20049;-76
2022/03/28 04:00:37;;;;;;;17.45;15.65;;;5.10;99.90;;;;;;5036025;28;20021;-77
2022/03/28 04:03:03;;;;;;;18.63;15.38;;;5.20;99.90;;;;;;5026278;28;20111;-77
2022/03/28 04:05:30;;;;;;;19.88;16.75;;;5.20;99.90;;;;;;5038069;28;20148;-77
2022/03/28 04:07:55;;;;;;;18.77;15.95;;;5.20;99.90;;;;;;5031888;28;20119;-76
2022/03/28 04:10:22;;;;;;;30.58;22.27;;;5.20;99.90;;;;;;5042512;28;20439;-76
2022/03/28 04:12:48;;;;;;;26.52;21.98;;;5.10;99.90;;;;;;5023991;28;20078;-76
2022/03/28 04:15:13;;;;;;;24.42;20.60;;;4.90;99.90;;;;;;5037798;28;20111;-75
2022/03/28 04:17:40;;;;;;;21.38;18.10;;;4.70;99.90;;;;;;5050046;28;20483;-75
2022/03/28 04:20:06;;;;;;;23.65;18.75;;;4.70;99.90;;;;;;5041563;28;20032;-75
2022/03/28 04:22:31;;;;;;;23.08;19.20;;;4.80;99.90;;;;;;5046861;28;20022;-75
2022/03/28 04:24:57;;;;;;;26.98;19.27;;;4.90;99.90;;;;;;5043244;28;20044;-75
2022/03/28 04:27:22;;;;;;;22.80;19.13;;;4.80;99.90;;;;;;5043661;28;20022;-75
2022/03/28 04:29:48;;;;;;;24.05;18.75;;;4.70;99.90;;;;;;5044168;28;20103;-75
2022/03/28 04:32:14;;;;;;;23.50;19.17;;;4.80;99.90;;;;;;5036609;28;20693;-76
2022/03/28 04:34:40;;;;;;;22.48;18.02;;;4.90;99.90;;;;;;5027420;28;20109;-76
2022/03/28 04:37:05;;;;;;;21.63;16.73;;;4.80;99.90;;;;;;5044183;28;21967;-75
2022/03/28 04:39:31;;;;;;;25.02;19.00;;;4.80;99.90;;;;;;5033225;28;20026;-73
2022/03/28 04:41:56;;;;;;;21.60;18.50;;;4.80;99.90;;;;;;5020416;28;20030;-73
2022/03/28 04:44:22;;;;;;;22.30;17.45;;;4.70;99.90;;;;;;5024627;28;20117;-73
2022/03/28 04:46:47;;;;;;;20.45;17.20;;;4.70;99.90;;;;;;5028770;28;20471;-73
2022/03/28 04:49:14;;;;;;;20.52;18.27;;;4.70;99.90;;;;;;5032077;28;20535;-73
2022/03/28 04:51:40;;;;;;;20.25;16.23;;;4.70;99.90;;;;;;5031924;28;20045;-74
2022/03/28 04:54:06;;;;;;;24.27;19.08;;;4.70;99.90;;;;;;5022103;28;20033;-73
2022/03/28 04:56:34;;;;;;;21.00;17.55;;;4.60;99.90;;;;;;5022724;28;20022;-74
2022/03/28 04:58:59;;;;;;;23.73;18.85;;;4.50;99.90;;;;;;5031167;28;20464;-74
2022/03/28 05:01:25;;;;;;;23.25;18.50;;;4.60;99.90;;;;;;5033148;28;20042;-73
2022/03/28 05:03:51;;;;;;;22.50;17.85;;;4.50;99.90;;;;;;5025244;28;20193;-73
2022/03/28 05:06:16;;;;;;;21.50;17.38;;;4.50;99.90;;;;;;5026960;28;20021;-73
2022/03/28 05:08:42;;;;;;;22.42;17.95;;;4.40;99.90;;;;;;5021919;28;20447;-74
2022/03/28 05:11:07;;;;;;;20.65;17.27;;;4.40;99.90;;;;;;5031675;28;20120;-74
2022/03/28 05:13:33;;;;;;;21.70;17.55;;;4.50;99.90;;;;;;5033367;28;20506;-74
2022/03/28 05:15:59;;;;;;;21.77;16.92;;;4.50;99.90;;;;;;5020055;28;20042;-74
2022/03/28 05:18:24;;;;;;;23.77;17.13;;;4.50;99.90;;;;;;5024290;28;20050;-74
2022/03/28 05:20:51;;;;;;;22.75;17.45;;;4.50;99.90;;;;;;5026604;28;20026;-75
2022/03/28 05:23:16;;;;;;;24.33;17.85;;;4.50;99.90;;;;;;5020098;28;20391;-74
2022/03/28 05:25:43;;;;;;;22.23;17.35;;;4.50;99.90;;;;;;5019497;28;20034;-75
2022/03/28 05:28:09;;;;;;;19.67;17.10;;;4.50;99.90;;;;;;5025537;28;20492;-74
2022/03/28 05:30:35;;;;;;;21.00;15.95;;;4.50;99.90;;;;;;5027551;28;20041;-74
2022/03/28 05:33:01;;;;;;;22.95;16.38;;;4.50;99.90;;;;;;5025623;28;20439;-75
2022/03/28 05:35:27;;;;;;;23.33;17.95;;;4.40;99.90;;;;;;5026585;28;20022;-75
2022/03/28 05:37:53;;;;;;;21.42;18.23;;;4.50;99.90;;;;;;5020910;28;20037;-75
2022/03/28 05:40:18;;;;;;;26.27;18.48;;;4.50;99.90;;;;;;5032440;28;20026;-75
2022/03/28 05:42:44;;;;;;;24.77;18.15;;;4.60;99.90;;;;;;5025512;28;20026;-75
2022/03/28 05:45:11;;;;;;;21.08;17.13;;;4.70;99.90;;;;;;5026567;28;20028;-73
2022/03/28 05:47:37;;;;;;;21.63;18.27;;;4.60;99.90;;;;;;5020589;28;20025;-74
2022/03/28 05:50:03;;;;;;;20.85;16.92;;;4.60;99.90;;;;;;5018146;28;20025;-76
2022/03/28 05:52:29;;;;;;;20.30;17.50;;;4.60;99.90;;;;;;5025390;28;20426;-75
2022/03/28 05:54:55;;;;;;;31.55;19.50;;;4.70;99.90;;;;;;5025295;28;20029;-76
2022/03/28 05:57:20;;;;;;;25.85;18.60;;;4.90;99.90;;;;;;5032637;28;20360;-76
2022/03/28 05:59:46;;;;;;;23.92;18.13;;;4.90;99.90;;;;;;5019452;28;20026;-76
2022/03/28 06:02:12;;;;;;;22.30;17.52;;;4.90;99.90;;;;;;5032369;28;20038;-75
2022/03/28 06:04:37;;;;;;;23.00;17.67;;;5.20;99.90;;;;;;5032300;28;20017;-75
2022/03/28 06:07:03;;;;;;;21.08;17.83;;;5.10;99.90;;;;;;5023352;28;20451;-74
2022/03/28 06:09:29;;;;;;;21.00;18.70;;;5.20;99.90;;;;;;5025511;28;20028;-75
2022/03/28 06:11:54;;;;;;;26.35;23.10;;;5.30;99.90;;;;;;5023213;28;20036;-74
2022/03/28 06:14:20;;;;;;;39.10;35.60;;;5.30;99.90;;;;;;5025601;28;20060;-75
2022/03/28 06:16:45;;;;;;;28.67;25.83;;;5.20;99.90;;;;;;5020866;28;20104;-74
2022/03/28 06:19:11;;;;;;;120.50;109.97;;;5.40;99.90;;;;;;5030663;28;20029;-75
2022/03/28 06:21:36;;;;;;;45.88;41.47;;;5.50;99.90;;;;;;5020217;28;20064;-75
2022/03/28 06:24:02;;;;;;;29.95;26.75;;;5.50;99.90;;;;;;5018730;28;20036;-75
2022/03/28 06:26:28;;;;;;;28.90;25.55;;;5.70;99.90;;;;;;5020851;28;20021;-75
2022/03/28 06:28:53;;;;;;;28.77;25.55;;;5.70;99.90;;;;;;5024366;28;20033;-75
2022/03/28 06:31:19;;;;;;;27.17;24.38;;;5.80;99.90;;;;;;5031726;28;20458;-75
2022/03/28 06:33:44;;;;;;;29.55;26.38;;;6.10;99.90;;;;;;5030414;28;20422;-75
2022/03/28 06:36:10;;;;;;;27.00;24.00;;;6.10;99.90;;;;;;5019603;28;20029;-75
2022/03/28 06:38:36;;;;;;;29.65;26.42;;;6.10;99.90;;;;;;5018592;28;20087;-76
2022/03/28 06:41:02;;;;;;;28.75;25.60;;;6.10;99.90;;;;;;5029798;28;20033;-76
2022/03/28 06:43:28;;;;;;;28.77;25.80;;;6.20;99.90;;;;;;5030465;28;20024;-75
2022/03/28 06:45:53;;;;;;;29.80;26.55;;;6.10;99.90;;;;;;5012365;28;20026;-75
2022/03/28 06:48:20;;;;;;;28.45;25.40;;;6.10;99.90;;;;;;5023961;28;20418;-75
2022/03/28 06:50:46;;;;;;;24.42;21.83;;;6.30;99.90;;;;;;5020109;28;20496;-71
2022/03/28 06:53:12;;;;;;;24.70;22.15;;;6.50;99.90;;;;;;5016873;28;20057;-71
2022/03/28 06:55:38;;;;;;;28.42;24.75;;;6.60;99.90;;;;;;5018970;28;20502;-76
2022/03/28 06:58:03;;;;;;;32.58;26.20;;;6.70;99.90;;;;;;5018538;28;20022;-75
2022/03/28 07:00:29;;;;;;;32.55;26.05;;;6.70;99.90;;;;;;5031360;28;20026;-73
2022/03/28 07:02:54;;;;;;;29.92;26.48;;;6.70;99.90;;;;;;5030993;28;20065;-76
2022/03/28 07:05:20;;;;;;;30.40;26.38;;;6.70;99.90;;;;;;5019338;28;20029;-76
2022/03/28 07:07:49;;;;;;;29.08;25.13;;;6.80;99.90;;;;;;5018558;28;20032;-77
2022/03/28 07:10:20;;;;;;;26.83;23.98;;;6.90;99.90;;;;;;5022733;28;20408;-76
2022/03/28 07:12:47;;;;;;;27.10;23.70;;;7.20;99.90;;;;;;5024614;28;20025;-76
2022/03/28 07:15:13;;;;;;;30.27;25.58;;;7.20;99.90;;;;;;5030132;28;20446;-76
2022/03/28 07:17:47;;;;;;;25.92;22.40;;;7.20;99.90;;;;;;5018120;28;20041;-76
2022/03/28 07:20:13;;;;;;;24.92;21.90;;;7.50;99.90;;;;;;5022182;28;20081;-75
2022/03/28 07:22:39;;;;;;;26.40;22.58;;;7.50;99.90;;;;;;5025008;28;20452;-76
2022/03/28 07:25:05;;;;;;;24.42;21.83;;;7.50;99.90;;;;;;5020842;28;20030;-76
2022/03/28 07:27:36;;;;;;;24.15;21.60;;;7.60;99.90;;;;;;5017223;28;20037;-76
2022/03/28 07:30:01;;;;;;;24.38;21.77;;;7.70;99.90;;;;;;5020675;28;20033;-76
2022/03/28 07:32:27;;;;;;;26.92;22.45;;;7.70;99.90;;;;;;5023475;28;20534;-77
2022/03/28 07:34:52;;;;;;;23.50;20.95;;;7.80;99.90;;;;;;5010521;28;20026;-73
2022/03/28 07:37:18;;;;;;;23.00;19.42;;;7.90;99.90;;;;;;5024915;28;20091;-75
2022/03/28 07:39:43;;;;;;;21.45;19.20;;;8.10;99.90;;;;;;5019519;28;20072;-75
2022/03/28 07:42:10;;;;;;;21.48;19.20;;;8.40;99.90;;;;;;5015328;28;20064;-76
2022/03/28 07:44:35;;;;;;;20.15;18.05;;;8.50;99.90;;;;;;5020809;28;20022;-75
2022/03/28 07:47:04;;;;;;;21.27;18.90;;;8.60;99.90;;;;;;5032120;28;20068;-76
2022/03/28 07:49:30;;;;;;;21.73;18.05;;;8.70;99.90;;;;;;5035152;28;20028;-76
2022/03/28 07:51:56;;;;;;;21.83;17.63;;;8.80;99.90;;;;;;5020136;28;20113;-76
2022/03/28 07:54:22;;;;;;;20.52;18.27;;;8.90;99.90;;;;;;5025770;28;20022;-76
2022/03/28 07:56:47;;;;;;;19.88;17.88;;;9.00;99.90;;;;;;5031101;28;20493;-76
2022/03/28 07:59:13;;;;;;;20.52;18.42;;;9.10;99.90;;;;;;5025806;28;20037;-77
2022/03/28 08:01:39;;;;;;;23.17;18.13;;;9.10;99.90;;;;;;5031774;28;20025;-76
2022/03/28 08:04:05;;;;;;;20.00;17.77;;;9.30;99.90;;;;;;5024579;28;20030;-76
2022/03/28 08:06:31;;;;;;;20.83;18.60;;;9.30;99.90;;;;;;5031620;28;20072;-77
2022/03/28 08:08:57;;;;;;;19.90;17.80;;;9.40;99.90;;;;;;5024367;28;20042;-76
2022/03/28 08:11:22;;;;;;;20.10;17.45;;;9.50;99.90;;;;;;5027754;28;20164;-76
2022/03/28 08:13:48;;;;;;;20.13;17.92;;;9.60;99.90;;;;;;5025135;28;20068;-76
2022/03/28 08:16:14;;;;;;;20.67;16.83;;;9.60;99.90;;;;;;5021273;28;20029;-75
2022/03/28 08:18:41;;;;;;;18.13;16.17;;;9.90;99.90;;;;;;5023480;28;20467;-76
2022/03/28 08:21:08;;;;;;;20.38;17.38;;;10.10;99.90;;;;;;5027674;28;20025;-76
2022/03/28 08:23:33;;;;;;;18.70;16.70;;;10.40;99.90;;;;;;5024935;28;20541;-76
2022/03/28 08:25:59;;;;;;;19.05;16.80;;;10.60;99.90;;;;;;5021004;28;20022;-76
2022/03/28 08:28:26;;;;;;;19.27;17.00;;;10.70;99.90;;;;;;5024415;28;20144;-76
2022/03/28 08:30:52;;;;;;;18.73;15.95;;;11.00;99.90;;;;;;5027538;28;20051;-76
2022/03/28 08:33:18;;;;;;;18.45;16.48;;;11.10;99.90;;;;;;5033001;28;20029;-76
2022/03/28 08:35:43;;;;;;;17.45;15.50;;;11.30;99.90;;;;;;5019472;28;20029;-76
2022/03/28 08:38:09;;;;;;;18.27;16.00;;;11.40;99.90;;;;;;5023330;28;20484;-76
2022/03/28 08:40:34;;;;;;;17.98;15.98;;;11.70;99.90;;;;;;5026975;28;20058;-77
2022/03/28 08:43:03;;;;;;;20.02;15.98;;;11.80;99.90;;;;;;5022578;28;20024;-76
2022/03/28 08:45:28;;;;;;;18.73;16.05;;;11.90;99.90;;;;;;5020802;28;20021;-76
2022/03/28 08:47:55;;;;;;;20.17;16.33;;;11.90;99.90;;;;;;5024091;28;20022;-76
2022/03/28 08:50:21;;;;;;;19.20;15.48;;;11.70;99.90;;;;;;5017149;28;20041;-77
2022/03/28 08:52:47;;;;;;;20.42;15.77;;;11.80;99.90;;;;;;5023986;28;20033;-76
2022/03/28 08:55:14;;;;;;;16.90;15.20;;;11.90;99.90;;;;;;5028361;28;20443;-76
2022/03/28 08:57:40;;;;;;;21.38;15.82;;;11.80;99.90;;;;;;5028758;28;20088;-77
2022/03/28 09:00:09;;;;;;;18.23;14.80;;;12.20;99.90;;;;;;5031642;28;20095;-76
2022/03/28 09:02:46;;;;;;;19.30;16.00;;;12.30;99.90;;;;;;5033595;28;20028;-76
2022/03/28 09:05:16;;;;;;;18.60;15.55;;;12.40;99.90;;;;;;5019038;28;20079;-77
2022/03/28 09:07:42;;;;;;;18.63;15.48;;;12.50;99.90;;;;;;5020378;28;20029;-76
2022/03/28 09:10:14;;;;;;;19.80;15.82;;;12.50;99.90;;;;;;5020327;28;20104;-77
2022/03/28 09:13:07;;;;;;;18.10;15.75;;;12.50;99.90;;;;;;5020084;28;20108;-76
2022/03/28 09:15:46;;;;;;;18.10;16.00;;;12.80;99.90;;;;;;5022213;28;20431;-76
2022/03/28 09:18:22;;;;;;;20.52;15.15;;;12.90;99.90;;;;;;5019666;28;20546;-76
2022/03/28 09:20:53;;;;;;;18.60;15.20;;;12.70;99.90;;;;;;5019734;28;20105;-77
2022/03/28 09:23:34;;;;;;;16.98;15.00;;;12.70;99.90;;;;;;5025194;28;20026;-77
2022/03/28 09:26:08;;;;;;;16.13;14.43;;;12.90;99.90;;;;;;5026706;28;20018;-76
2022/03/28 09:28:46;;;;;;;18.23;14.82;;;13.00;99.90;;;;;;5023932;28;20139;-76
2022/03/28 09:31:32;;;;;;;16.63;14.57;;;13.10;99.90;;;;;;5019283;28;20116;-76
2022/03/28 09:34:17;;;;;;;16.15;13.82;;;13.20;99.90;;;;;;5019940;28;20061;-76
2022/03/28 09:36:48;;;;;;;17.55;14.18;;;13.30;99.90;;;;;;5024145;28;20053;-77
2022/03/28 09:39:18;;;;;;;17.70;14.32;;;13.40;99.90;;;;;;5019861;28;20032;-77
2022/03/28 09:41:59;;;;;;;18.80;13.95;;;13.60;99.90;;;;;;5018114;28;20038;-76
2022/03/28 09:44:44;;;;;;;16.85;13.80;;;13.60;99.90;;;;;;5021915;28;20021;-77
2022/03/28 09:47:15;;;;;;;16.35;13.40;;;13.70;99.90;;;;;;5020098;28;20506;-76
2022/03/28 09:49:42;;;;;;;18.75;13.13;;;13.70;99.90;;;;;;5021006;28;20033;-76
2022/03/28 09:52:10;;;;;;;16.70;13.00;;;13.90;99.90;;;;;;5024700;28;20460;-77
2022/03/28 09:54:56;;;;;;;15.65;13.63;;;14.00;99.90;;;;;;5024065;28;20384;-77
2022/03/28 09:57:33;;;;;;;15.93;12.65;;;14.00;99.90;;;;;;5012987;28;20033;-76
2022/03/28 10:00:12;;;;;;;16.90;12.63;;;14.40;99.90;;;;;;5029445;28;20036;-76
2022/03/28 10:02:38;;;;;;;14.82;12.70;;;14.40;99.90;;;;;;5031320;28;20017;-77
2022/03/28 10:05:05;;;;;;;17.05;11.95;;;14.70;99.90;;;;;;5019075;28;20395;-76
2022/03/28 10:07:32;;;;;;;15.63;12.10;;;14.80;99.90;;;;;;5020832;28;20030;-76
2022/03/28 10:09:58;;;;;;;13.90;11.95;;;14.80;99.90;;;;;;5025842;28;20032;-77
2022/03/28 10:12:24;;;;;;;13.98;11.88;;;15.10;99.90;;;;;;5025832;28;20029;-77
2022/03/28 10:14:57;;;;;;;13.98;12.25;;;15.10;99.90;;;;;;5017728;28;20079;-77
2022/03/28 10:17:27;;;;;;;14.82;12.38;;;15.10;99.90;;;;;;5018746;28;20033;-76
2022/03/28 10:19:53;;;;;;;15.93;11.93;;;15.40;99.90;;;;;;5025876;28;20400;-77
2022/03/28 10:22:26;;;;;;;15.25;11.80;;;15.50;99.90;;;;;;5025167;28;20028;-77
2022/03/28 10:24:53;;;;;;;17.58;13.13;;;15.80;99.90;;;;;;5038201;28;20029;-77
2022/03/28 10:27:19;;;;;;;18.70;13.20;;;15.50;99.90;;;;;;5032275;28;20034;-77
2022/03/28 10:29:45;;;;;;;16.58;12.27;;;15.50;99.90;;;;;;5027436;28;20361;-76
2022/03/28 10:32:20;;;;;;;17.77;13.43;;;15.60;99.90;;;;;;5031933;28;20025;-77
2022/03/28 10:34:56;;;;;;;14.75;13.13;;;15.40;99.90;;;;;;5022989;28;20041;-75
2022/03/28 10:37:34;;;;;;;17.25;13.48;;;15.30;99.90;;;;;;5028048;28;20037;-76
2022/03/28 10:40:24;;;;;;;16.33;11.77;;;15.70;99.90;;;;;;5020957;28;20101;-76
2022/03/28 10:43:08;;;;;;;15.10;11.77;;;16.00;99.90;;;;;;5019544;28;20120;-76
2022/03/28 10:45:35;;;;;;;17.02;12.60;;;16.00;99.90;;;;;;5018631;28;20465;-75
2022/03/28 10:48:01;;;;;;;15.48;12.15;;;16.00;99.90;;;;;;5020787;28;20125;-77
2022/03/28 10:50:33;;;;;;;15.88;13.02;;;16.20;99.90;;;;;;5027088;28;20033;-77
2022/03/28 10:53:08;;;;;;;16.40;11.00;;;16.40;99.90;;;;;;5021434;28;20060;-76
2022/03/28 10:55:44;;;;;;;15.77;12.03;;;16.50;99.90;;;;;;5018808;28;20427;-77
2022/03/28 10:58:18;;;;;;;16.52;12.25;;;16.50;99.90;;;;;;5019072;28;20120;-76
2022/03/28 11:01:13;;;;;;;16.67;10.57;;;16.50;99.90;;;;;;5029843;28;20060;-76
2022/03/28 11:03:58;;;;;;;14.05;9.93;;;16.80;99.90;;;;;;5011997;28;20029;-76
2022/03/28 11:07:00;;;;;;;11.45;9.45;;;16.90;99.90;;;;;;5025294;28;20049;-76
2022/03/28 11:09:41;;;;;;;17.42;11.95;;;16.90;99.90;;;;;;5013169;28;20435;-76
2022/03/28 11:12:17;;;;;;;15.48;11.15;;;16.70;99.90;;;;;;5021919;28;20033;-77
2022/03/28 11:14:53;;;;;;;;;;;16.70;99.90;;;;;;5028140;28;20483;-76
2022/03/28 11:17:20;;;;;;;13.20;10.88;;;17.00;99.90;;;;;;5022618;28;19905;-76
2022/03/28 11:19:54;;;;;;;15.07;10.65;;;17.10;99.90;;;;;;5025528;28;20427;-77
2022/03/28 11:22:37;;;;;;;16.23;10.90;;;17.30;99.90;;;;;;5012092;28;20112;-76
2022/03/28 11:25:03;;;;;;;14.02;10.73;;;17.20;99.90;;;;;;5026601;28;20471;-77
2022/03/28 11:27:31;;;;;;;14.45;11.13;;;17.30;99.90;;;;;;5029236;28;20038;-76
2022/03/28 11:30:04;;;;;;;15.90;11.68;;;17.30;99.90;;;;;;5023857;28;20032;-76
2022/03/28 11:32:32;;;;;;;16.42;11.32;;;17.30;99.90;;;;;;5030266;28;20026;-76
2022/03/28 11:34:59;;;;;;;14.52;11.07;;;17.30;99.90;;;;;;5026409;28;20032;-77
2022/03/28 11:37:28;;;;;;;15.35;11.02;;;17.90;99.90;;;;;;5031321;28;20472;-77
2022/03/28 11:39:59;;;;;;;15.25;11.70;;;18.10;99.90;;;;;;5027578;28;20048;-77
2022/03/28 11:42:27;;;;;;;15.43;11.25;;;18.20;99.90;;;;;;5022319;28;20057;-77
2022/03/28 11:44:54;;;;;;;17.02;12.60;;;18.10;99.90;;;;;;5022420;28;20514;-77
2022/03/28 11:47:21;;;;;;;15.85;12.18;;;17.80;99.90;;;;;;5027662;28;20076;-77
2022/03/28 11:50:00;;;;;;;19.10;12.10;;;17.60;99.90;;;;;;5028155;28;20035;-73
2022/03/28 11:52:28;;;;;;;16.80;12.30;;;17.30;99.90;;;;;;5022634;28;20053;-76
2022/03/28 11:54:55;;;;;;;14.73;12.02;;;17.70;99.90;;;;;;5022370;28;20017;-76
2022/03/28 12:00:23;;;;;;;;;;;18.70;99.90;;;;;;5034375;28;20052;-77
2022/03/28 12:02:56;;;;;;;16.73;11.25;;;18.30;99.90;;;;;;5060356;28;20298;-76
2022/03/28 12:05:36;;;;;;;15.68;11.48;;;18.40;99.90;;;;;;5022565;28;20479;-76
2022/03/28 12:08:13;;;;;;;16.10;10.90;;;17.80;99.90;;;;;;5021577;28;20026;-76
2022/03/28 12:10:42;;;;;;;15.43;11.38;;;17.90;99.90;;;;;;5030731;28;20075;-77
2022/03/28 12:13:09;;;;;;;16.80;11.60;;;17.70;99.90;;;;;;5034644;28;20087;-77
2022/03/28 12:15:40;;;;;;;15.05;11.35;;;17.20;99.90;;;;;;5023553;28;20032;-77
2022/03/28 12:18:08;;;;;;;15.27;11.40;;;17.10;99.90;;;;;;5028836;28;20033;-77
2022/03/28 12:20:40;;;;;;;13.35;10.68;;;17.20;99.90;;;;;;5034437;28;20017;-76
2022/03/28 12:23:07;;;;;;;14.07;10.20;;;17.50;99.90;;;;;;5014679;28;20022;-76
2022/03/28 12:25:38;;;;;;;15.45;10.65;;;19.00;99.90;;;;;;5027881;28;20100;-77
2022/03/28 12:28:10;;;;;;;15.82;10.57;;;19.80;99.90;;;;;;5020669;28;20026;-77
2022/03/28 12:30:42;;;;;;;13.05;10.05;;;19.40;98.20;;;;;;5020657;28;20036;-77
2022/03/28 12:33:17;;;;;;;12.38;10.07;;;19.50;99.70;;;;;;5023837;28;20033;-76
2022/03/28 12:35:51;;;;;;;10.97;9.70;;;20.40;99.30;;;;;;5030871;28;20041;-74
2022/03/28 12:38:20;;;;;;;13.63;9.63;;;21.20;96.80;;;;;;5022994;28;20065;-74
2022/03/28 12:40:50;;;;;;;12.13;8.85;;;21.80;91.50;;;;;;5031956;28;20041;-74
2022/03/28 12:43:17;;;;;;;14.70;9.52;;;21.50;91.50;;;;;;5021922;28;20423;-74